createdAt,value
2022-10-31T00:01:00.124Z,99704.13
2022-10-31T00:03:27.364Z,99710.66
2022-10-31T00:05:54.286Z,99713.50
2022-10-31T00:08:21.039Z,99722.19
2022-10-31T00:10:47.825Z,99722.19
2022-10-31T00:13:15.449Z,99723.16
2022-10-31T00:15:42.707Z,99724.69
2022-10-31T00:18:10.663Z,99730.34
2022-10-31T00:20:38.848Z,99736.88
2022-10-31T00:23:07.127Z,99749.91
2022-10-31T00:25:37.224Z,99749.91
2022-10-31T00:28:05.414Z,99750.22
2022-10-31T00:30:32.260Z,99753.91
2022-10-31T00:32:59.486Z,99749.56
2022-10-31T00:35:26.462Z,99753.25
2022-10-31T00:37:53.764Z,99756.75
2022-10-31T00:40:20.641Z,99759.41
2022-10-31T00:42:47.356Z,99767.59
2022-10-31T00:45:14.228Z,99760.25
2022-10-31T00:47:40.899Z,99771.28
2022-10-31T00:50:08.504Z,99774.94
2022-10-31T00:52:44.590Z,99769.78
2022-10-31T00:55:11.328Z,99766.91
2022-10-31T00:57:38.066Z,99770.94
2022-10-31T01:00:06.477Z,99778.28
2022-10-31T01:02:33.358Z,99772.78
2022-10-31T01:05:00.969Z,99767.13
2022-10-31T01:07:27.670Z,99767.59
2022-10-31T01:09:54.372Z,99763.59
2022-10-31T01:12:22.211Z,99775.97
2022-10-31T01:14:48.919Z,99776.13
2022-10-31T01:17:18.618Z,99782.81
2022-10-31T01:19:47.213Z,99782.47
2022-10-31T01:22:29.447Z,99781.63
2022-10-31T01:24:59.142Z,99780.97
2022-10-31T01:27:26.024Z,99779.63
2022-10-31T01:29:52.759Z,99781.31
2022-10-31T01:32:19.529Z,99786.66
2022-10-31T01:34:46.221Z,99787.81
2022-10-31T01:37:14.220Z,99792.47
2022-10-31T01:39:40.882Z,99782.47
2022-10-31T01:42:07.736Z,99786.66
2022-10-31T01:44:34.325Z,99780.97
2022-10-31T01:47:15.140Z,99785.97
2022-10-31T01:49:48.499Z,99784.97
2022-10-31T01:52:25.252Z,99785.63
2022-10-31T01:55:06.078Z,99795.00
2022-10-31T01:57:35.961Z,99784.81
2022-10-31T02:00:09.167Z,99789.53
2022-10-31T02:02:46.717Z,99791.69
2022-10-31T02:05:17.436Z,99783.31
2022-10-31T02:07:51.734Z,99793.34
2022-10-31T02:10:22.195Z,99788.88
2022-10-31T02:12:51.383Z,99791.19
2022-10-31T02:15:18.119Z,99789.69
2022-10-31T02:17:45.352Z,99784.00
2022-10-31T02:20:15.782Z,99794.38
2022-10-31T02:23:01.419Z,99802.41
2022-10-31T02:25:43.262Z,99804.56
2022-10-31T02:28:33.300Z,99806.44
2022-10-31T02:31:44.143Z,99802.75
2022-10-31T02:34:25.378Z,99810.25
2022-10-31T02:37:03.070Z,99817.13
2022-10-31T02:40:08.621Z,99805.06
2022-10-31T02:43:07.969Z,99808.94
2022-10-31T02:45:49.878Z,99817.94
2022-10-31T02:48:23.546Z,99816.44
2022-10-31T02:50:56.661Z,99817.59
2022-10-31T02:53:23.461Z,99816.09
2022-10-31T02:55:57.157Z,99820.44
2022-10-31T02:58:27.470Z,99815.41
2022-10-31T03:01:25.986Z,99814.75
2022-10-31T03:04:17.177Z,99828.13
2022-10-31T03:06:55.763Z,99829.31
2022-10-31T03:09:41.968Z,99821.78
2022-10-31T03:12:16.856Z,99818.66
2022-10-31T03:14:53.762Z,99809.28
2022-10-31T03:17:36.976Z,99801.41
2022-10-31T03:20:07.724Z,99810.78
2022-10-31T03:22:36.029Z,99826.34
2022-10-31T03:25:05.411Z,99822.16
2022-10-31T03:27:36.632Z,99826.53
2022-10-31T03:30:06.455Z,99824.50
2022-10-31T03:32:49.977Z,99826.66
2022-10-31T03:35:20.610Z,99832.88
2022-10-31T03:37:49.545Z,99826.00
2022-10-31T03:40:19.604Z,99821.31
2022-10-31T03:42:54.270Z,99827.84
2022-10-31T03:45:26.721Z,99821.31
2022-10-31T03:47:55.395Z,99815.78
2022-10-31T03:50:24.578Z,99812.13
2022-10-31T03:53:16.086Z,99811.09
2022-10-31T03:55:46.704Z,99820.00
2022-10-31T03:58:22.203Z,99815.47
2022-10-31T04:00:51.837Z,99809.78
2022-10-31T04:03:23.174Z,99801.09
2022-10-31T04:05:54.999Z,99794.22
2022-10-31T04:08:26.982Z,99797.22
2022-10-31T04:10:57.173Z,99795.38
2022-10-31T04:13:30.924Z,99793.22
2022-10-31T04:16:06.665Z,99800.56
2022-10-31T04:18:33.837Z,99797.06
2022-10-31T04:21:02.676Z,99792.72
2022-10-31T04:23:31.666Z,99797.22
2022-10-31T04:25:59.918Z,99771.31
2022-10-31T04:28:28.888Z,99780.69
2022-10-31T04:30:55.577Z,99773.16
2022-10-31T04:33:22.929Z,99763.97
2022-10-31T04:35:49.683Z,99769.47
2022-10-31T04:38:16.469Z,99757.13
2022-10-31T04:40:44.402Z,99761.28
2022-10-31T04:43:37.063Z,99750.44
2022-10-31T04:46:03.900Z,99759.28
2022-10-31T04:48:30.796Z,99769.31
2022-10-31T04:51:02.053Z,99767.66
2022-10-31T04:53:29.543Z,99769.66
2022-10-31T04:56:15.089Z,99779.31
2022-10-31T04:58:45.159Z,99765.78
2022-10-31T05:01:12.577Z,99768.28
2022-10-31T05:03:40.608Z,99766.94
2022-10-31T05:06:08.003Z,99765.75
2022-10-31T05:08:35.481Z,99763.56
2022-10-31T05:11:05.591Z,99760.59
2022-10-31T05:13:33.375Z,99767.25
2022-10-31T05:16:12.154Z,99769.59
2022-10-31T05:18:57.284Z,99758.59
2022-10-31T05:21:42.464Z,99755.06
2022-10-31T05:24:11.198Z,99756.25
2022-10-31T05:26:40.054Z,99750.22
2022-10-31T05:29:06.759Z,99755.56
2022-10-31T05:31:33.748Z,99752.91
2022-10-31T05:34:01.437Z,99748.38
2022-10-31T05:36:34.151Z,99759.94
2022-10-31T05:39:04.352Z,99764.13
2022-10-31T05:41:35.682Z,99767.59
2022-10-31T05:44:09.908Z,99780.66
2022-10-31T05:46:51.733Z,99783.66
2022-10-31T05:49:36.958Z,99788.69
2022-10-31T05:52:22.151Z,99779.50
2022-10-31T05:54:57.212Z,99782.00
2022-10-31T05:57:24.163Z,99787.34
2022-10-31T05:59:55.131Z,99778.34
2022-10-31T06:02:23.821Z,99782.38
2022-10-31T06:05:22.180Z,99781.66
2022-10-31T06:07:49.132Z,99780.03
2022-10-31T06:10:16.772Z,99779.84
2022-10-31T06:12:46.189Z,99776.84
2022-10-31T06:15:24.185Z,99778.31
2022-10-31T06:18:03.611Z,99773.66
2022-10-31T06:20:34.931Z,99766.28
2022-10-31T06:23:04.588Z,99763.94
2022-10-31T06:25:34.077Z,99769.50
2022-10-31T06:28:00.950Z,99769.31
2022-10-31T06:30:41.105Z,99765.28
2022-10-31T06:33:08.453Z,99774.50
2022-10-31T06:35:38.852Z,99774.13
2022-10-31T06:38:05.902Z,99766.59
2022-10-31T06:40:37.891Z,99761.94
2022-10-31T06:43:24.893Z,99758.09
2022-10-31T06:46:05.495Z,99761.25
2022-10-31T06:48:38.921Z,99770.78
2022-10-31T06:51:17.197Z,99771.97
2022-10-31T06:53:44.271Z,99775.13
2022-10-31T06:56:13.227Z,99783.84
2022-10-31T06:58:46.043Z,99784.47
2022-10-31T07:01:13.857Z,99785.31
2022-10-31T07:03:40.974Z,99784.47
2022-10-31T07:06:08.345Z,99795.53
2022-10-31T07:08:35.085Z,99797.31
2022-10-31T07:11:01.898Z,99795.16
2022-10-31T07:13:30.071Z,99786.63
2022-10-31T07:16:08.443Z,99791.34
2022-10-31T07:18:36.522Z,99804.72
2022-10-31T07:21:03.847Z,99801.84
2022-10-31T07:23:30.650Z,99807.88
2022-10-31T07:26:17.397Z,99813.22
2022-10-31T07:28:48.147Z,99809.84
2022-10-31T07:31:17.227Z,99814.38
2022-10-31T07:33:44.102Z,99810.63
2022-10-31T07:36:25.849Z,99816.50
2022-10-31T07:38:55.135Z,99826.00
2022-10-31T07:41:22.524Z,99818.19
2022-10-31T07:43:49.423Z,99808.41
2022-10-31T07:46:16.193Z,99806.41
2022-10-31T07:49:20.833Z,99819.44
2022-10-31T07:52:06.145Z,99818.19
2022-10-31T07:54:53.069Z,99807.09
2022-10-31T07:57:25.318Z,99811.25
2022-10-31T07:59:52.931Z,99815.41
2022-10-31T08:02:19.875Z,99815.78
2022-10-31T08:04:49.991Z,99817.25
2022-10-31T08:07:55.927Z,99824.28
2022-10-31T08:10:23.534Z,99825.59
2022-10-31T08:13:10.711Z,99823.03
2022-10-31T08:15:42.752Z,99827.91
2022-10-31T08:18:14.840Z,99810.19
2022-10-31T08:20:43.975Z,99817.91
2022-10-31T08:23:12.042Z,99802.28
2022-10-31T08:25:39.346Z,99796.25
2022-10-31T08:28:07.710Z,99805.44
2022-10-31T08:30:36.423Z,99802.63
2022-10-31T08:33:21.771Z,99789.75
2022-10-31T08:36:28.647Z,99787.53
2022-10-31T08:39:01.412Z,99784.34
2022-10-31T08:41:29.584Z,99783.59
2022-10-31T08:43:56.528Z,99771.13
2022-10-31T08:46:23.265Z,99784.22
2022-10-31T08:48:50.277Z,99783.19
2022-10-31T08:51:18.227Z,99778.69
2022-10-31T08:53:45.238Z,99779.09
2022-10-31T08:56:32.254Z,99777.34
2022-10-31T08:59:00.183Z,99772.81
2022-10-31T09:01:56.260Z,99780.50
2022-10-31T09:04:23.231Z,99770.56
2022-10-31T09:07:19.600Z,99763.16
2022-10-31T09:09:37.866Z,99757.38
2022-10-31T09:12:04.868Z,99756.16
2022-10-31T09:14:49.913Z,99756.28
2022-10-31T09:17:25.130Z,99763.16
2022-10-31T09:20:12.985Z,99754.69
2022-10-31T09:22:39.798Z,99760.38
2022-10-31T09:25:06.770Z,99739.97
2022-10-31T09:27:33.504Z,99738.09
2022-10-31T09:30:01.157Z,99733.66
2022-10-31T09:32:27.873Z,99724.69
2022-10-31T09:34:54.621Z,99724.47
2022-10-31T09:37:21.429Z,99725.38
2022-10-31T09:39:48.148Z,99719.25
2022-10-31T09:42:52.699Z,99721.78
2022-10-31T09:45:30.030Z,99718.75
2022-10-31T09:48:17.660Z,99716.00
2022-10-31T09:51:08.266Z,99716.47
2022-10-31T09:54:03.908Z,99714.22
2022-10-31T09:56:33.156Z,99714.97
2022-10-31T09:59:02.800Z,99728.56
2022-10-31T10:01:41.486Z,99729.00
2022-10-31T10:04:27.641Z,99742.88
2022-10-31T10:07:06.647Z,99733.50
2022-10-31T10:09:51.922Z,99748.28
2022-10-31T10:12:43.215Z,99749.44
2022-10-31T10:15:49.331Z,99755.53
2022-10-31T10:18:44.945Z,99772.91
2022-10-31T10:21:29.626Z,99777.41
2022-10-31T10:24:14.409Z,99759.84
2022-10-31T10:27:13.288Z,99773.16
2022-10-31T10:29:50.514Z,99777.00
2022-10-31T10:32:46.596Z,99784.00
2022-10-31T10:35:17.581Z,99786.88
2022-10-31T10:37:47.415Z,99791.25
2022-10-31T10:40:19.596Z,99785.41
2022-10-31T10:43:15.600Z,99796.25
2022-10-31T10:46:06.542Z,99787.91
2022-10-31T10:49:10.459Z,99800.88
2022-10-31T10:52:02.798Z,99796.34
2022-10-31T10:54:45.601Z,99793.72
2022-10-31T10:57:12.778Z,99797.91
2022-10-31T10:59:39.456Z,99813.69
2022-10-31T11:02:34.587Z,99801.53
2022-10-31T11:05:02.763Z,99809.28
2022-10-31T11:07:40.825Z,99792.53
2022-10-31T11:10:15.150Z,99799.84
2022-10-31T11:12:43.179Z,99811.25
2022-10-31T11:15:22.185Z,99822.81
2022-10-31T11:17:54.052Z,99813.13
2022-10-31T11:20:20.835Z,99792.13
2022-10-31T11:22:49.415Z,99790.84
2022-10-31T11:25:27.080Z,99805.69
2022-10-31T11:28:05.935Z,99794.09
2022-10-31T11:30:44.348Z,99791.03
2022-10-31T11:33:25.850Z,99789.81
2022-10-31T11:35:57.887Z,99785.69
2022-10-31T11:38:32.590Z,99781.84
2022-10-31T11:41:18.501Z,99778.91
2022-10-31T11:44:05.931Z,99780.28
2022-10-31T11:46:39.305Z,99772.03
2022-10-31T11:49:16.051Z,99759.19
2022-10-31T11:51:43.056Z,99762.16
2022-10-31T11:54:27.510Z,99769.94
2022-10-31T11:56:54.271Z,99773.63
2022-10-31T11:59:26.426Z,99771.06
2022-10-31T12:01:55.014Z,99773.44
2022-10-31T12:04:29.248Z,99779.09
2022-10-31T12:06:56.041Z,99772.53
2022-10-31T12:09:27.799Z,99778.28
2022-10-31T12:12:22.954Z,99763.84
2022-10-31T12:14:55.681Z,99760.31
2022-10-31T12:17:29.332Z,99754.47
2022-10-31T12:20:24.034Z,99762.78
2022-10-31T12:22:59.926Z,99754.00
2022-10-31T12:25:32.866Z,99753.34
2022-10-31T12:28:33.959Z,99745.28
2022-10-31T12:31:22.142Z,99759.84
2022-10-31T12:34:04.424Z,99752.69
2022-10-31T12:36:36.353Z,99738.44
2022-10-31T12:39:39.856Z,99747.50
2022-10-31T12:42:12.421Z,99760.66
2022-10-31T12:45:05.907Z,99750.47
2022-10-31T12:47:56.902Z,99735.00
2022-10-31T12:50:51.718Z,99750.31
2022-10-31T12:53:34.621Z,99755.84
2022-10-31T12:56:35.318Z,99738.91
2022-10-31T12:59:22.608Z,99738.69
2022-10-31T13:02:00.637Z,99728.91
2022-10-31T13:04:47.804Z,99730.28
2022-10-31T13:07:35.586Z,99727.31
2022-10-31T13:10:02.250Z,99715.47
2022-10-31T13:12:33.382Z,99715.72
2022-10-31T13:15:23.502Z,99714.34
2022-10-31T13:17:57.133Z,99714.53
2022-10-31T13:20:33.865Z,99701.56
2022-10-31T13:23:49.194Z,99692.13
2022-10-31T13:26:13.738Z,99711.00
2022-10-31T13:29:10.374Z,99696.94
2022-10-31T13:31:41.227Z,99692.22
2022-10-31T13:34:21.323Z,99692.31
2022-10-31T13:36:58.102Z,99696.28
2022-10-31T13:40:01.961Z,99682.84
2022-10-31T13:42:40.523Z,99678.97
2022-10-31T13:45:15.853Z,99680.00
2022-10-31T13:47:46.257Z,99666.56
2022-10-31T13:50:19.384Z,99668.59
2022-10-31T13:52:46.761Z,99676.66
2022-10-31T13:55:36.345Z,99662.50
2022-10-31T13:58:25.857Z,99671.19
2022-10-31T14:01:07.214Z,99687.97
2022-10-31T14:04:03.298Z,99666.38
2022-10-31T14:06:25.068Z,99663.41
2022-10-31T14:08:53.239Z,99657.22
2022-10-31T14:11:32.825Z,99651.19
2022-10-31T14:14:03.265Z,99660.28
2022-10-31T14:16:32.872Z,99668.69
2022-10-31T14:19:09.240Z,99649.06
2022-10-31T14:21:42.932Z,99667.22
2022-10-31T14:24:26.095Z,99652.41
2022-10-31T14:27:20.292Z,99652.88
2022-10-31T14:29:50.435Z,99637.78
2022-10-31T14:32:25.302Z,99650.94
2022-10-31T14:34:51.941Z,99646.66
2022-10-31T14:37:24.540Z,99650.38
2022-10-31T14:40:12.701Z,99652.22
2022-10-31T14:42:58.186Z,99635.66
2022-10-31T14:45:50.851Z,99641.38
2022-10-31T14:48:41.933Z,99628.41
2022-10-31T14:51:17.786Z,99635.81
2022-10-31T14:53:53.551Z,99630.63
2022-10-31T14:56:27.988Z,99632.97
2022-10-31T14:58:58.764Z,99631.28
2022-10-31T15:01:37.776Z,99621.75
2022-10-31T15:04:24.740Z,99630.38
2022-10-31T15:07:37.719Z,99628.97
2022-10-31T15:10:07.728Z,99633.22
2022-10-31T15:12:39.378Z,99638.41
2022-10-31T15:15:20.060Z,99627.50
2022-10-31T15:17:51.383Z,99632.88
2022-10-31T15:20:19.249Z,99626.22
2022-10-31T15:22:46.961Z,99630.53
2022-10-31T15:25:19.611Z,99622.88
2022-10-31T15:27:47.995Z,99632.41
2022-10-31T15:30:26.383Z,99616.69
2022-10-31T15:33:01.126Z,99621.41
2022-10-31T15:35:30.417Z,99623.44
2022-10-31T15:38:02.601Z,99627.50
2022-10-31T15:40:29.631Z,99616.94
2022-10-31T15:43:02.924Z,99622.31
2022-10-31T15:45:31.477Z,99615.47
2022-10-31T15:48:02.150Z,99618.31
2022-10-31T15:50:54.532Z,99622.69
2022-10-31T15:53:43.935Z,99619.53
2022-10-31T15:56:14.783Z,99621.38
2022-10-31T15:58:48.297Z,99623.03
2022-10-31T16:01:26.550Z,99632.13
2022-10-31T16:04:19.527Z,99624.50
2022-10-31T16:06:59.494Z,99623.50
2022-10-31T16:09:26.335Z,99626.38
2022-10-31T16:11:53.470Z,99632.13
2022-10-31T16:14:25.825Z,99630.09
2022-10-31T16:16:58.733Z,99637.09
2022-10-31T16:19:29.856Z,99626.75
2022-10-31T16:22:13.205Z,99629.59
2022-10-31T16:24:52.112Z,99630.97
2022-10-31T16:27:26.729Z,99631.13
2022-10-31T16:29:53.954Z,99625.59
2022-10-31T16:32:52.391Z,99630.81
2022-10-31T16:35:24.546Z,99613.91
2022-10-31T16:37:51.277Z,99610.34
2022-10-31T16:40:18.698Z,99606.72
2022-10-31T16:42:46.262Z,99592.19
2022-10-31T16:45:31.172Z,99609.78
2022-10-31T16:48:07.203Z,99609.78
2022-10-31T16:50:34.086Z,99607.44
2022-10-31T16:53:16.157Z,99614.50
2022-10-31T16:55:46.763Z,99611.16
2022-10-31T16:58:22.045Z,99612.16
2022-10-31T17:00:49.140Z,99625.38
2022-10-31T17:03:16.036Z,99622.72
2022-10-31T17:05:42.781Z,99613.47
2022-10-31T17:08:09.453Z,99615.97
2022-10-31T17:10:36.863Z,99629.00
2022-10-31T17:13:05.631Z,99624.47
2022-10-31T17:15:42.659Z,99623.84
2022-10-31T17:18:13.255Z,99628.19
2022-10-31T17:20:40.038Z,99646.56
2022-10-31T17:23:06.670Z,99651.59
2022-10-31T17:25:33.408Z,99654.28
2022-10-31T17:28:00.131Z,99652.41
2022-10-31T17:30:27.104Z,99655.97
2022-10-31T17:32:55.331Z,99650.28
2022-10-31T17:35:22.161Z,99657.97
2022-10-31T17:37:49.275Z,99653.97
2022-10-31T17:40:21.810Z,99658.34
2022-10-31T17:42:53.905Z,99656.38
2022-10-31T17:45:21.934Z,99663.59
2022-10-31T17:47:49.825Z,99670.16
2022-10-31T17:50:18.148Z,99665.47
2022-10-31T17:52:45.304Z,99664.09
2022-10-31T17:55:12.835Z,99661.75
2022-10-31T17:57:39.992Z,99655.91
2022-10-31T18:00:09.606Z,99647.19
2022-10-31T18:02:38.158Z,99648.72
2022-10-31T18:05:05.868Z,99642.38
2022-10-31T18:07:33.181Z,99641.06
2022-10-31T18:10:00.372Z,99636.09
2022-10-31T18:12:27.729Z,99639.97
2022-10-31T18:14:55.052Z,99638.50
2022-10-31T18:17:22.082Z,99643.38
2022-10-31T18:19:49.065Z,99638.84
2022-10-31T18:22:15.744Z,99638.19
2022-10-31T18:24:42.399Z,99645.56
2022-10-31T18:27:09.168Z,99639.38
2022-10-31T18:29:35.777Z,99651.94
2022-10-31T18:32:06.906Z,99641.22
2022-10-31T18:34:36.078Z,99636.03
2022-10-31T18:37:03.275Z,99645.09
2022-10-31T18:39:30.053Z,99647.75
2022-10-31T18:41:56.883Z,99644.47
2022-10-31T18:44:23.619Z,99647.75
2022-10-31T18:46:50.364Z,99650.94
2022-10-31T18:49:22.502Z,99662.13
2022-10-31T18:51:50.616Z,99668.50
2022-10-31T18:54:17.956Z,99674.72
2022-10-31T18:56:45.342Z,99663.63
2022-10-31T18:59:12.415Z,99654.75
2022-10-31T19:01:40.039Z,99662.78
2022-10-31T19:04:06.948Z,99671.00
2022-10-31T19:06:33.960Z,99668.50
2022-10-31T19:09:04.427Z,99674.06
2022-10-31T19:11:34.968Z,99672.38
2022-10-31T19:14:02.063Z,99673.75
2022-10-31T19:16:29.416Z,99668.03
2022-10-31T19:18:58.605Z,99663.03
2022-10-31T19:21:25.943Z,99653.78
2022-10-31T19:23:54.531Z,99651.09
2022-10-31T19:26:21.255Z,99648.97
2022-10-31T19:28:48.091Z,99638.22
2022-10-31T19:31:14.965Z,99642.94
2022-10-31T19:33:41.717Z,99648.63
2022-10-31T19:36:11.054Z,99643.44
2022-10-31T19:38:41.544Z,99646.59
2022-10-31T19:41:20.494Z,99639.19
2022-10-31T19:43:47.235Z,99639.00
2022-10-31T19:46:27.749Z,99639.84
2022-10-31T19:49:02.715Z,99626.78
2022-10-31T19:51:29.428Z,99630.50
2022-10-31T19:53:56.135Z,99612.72
2022-10-31T19:56:25.412Z,99611.75
2022-10-31T19:58:52.525Z,99616.06
2022-10-31T20:01:21.949Z,99620.59
2022-10-31T20:03:51.565Z,99622.47
2022-10-31T20:06:39.533Z,99616.72
2022-10-31T20:09:09.620Z,99607.03
2022-10-31T20:11:38.916Z,99604.34
2022-10-31T20:14:06.253Z,99602.84
2022-10-31T20:16:33.381Z,99601.66
2022-10-31T20:19:00.421Z,99599.63
2022-10-31T20:21:30.036Z,99593.72
2022-10-31T20:24:01.408Z,99582.78
2022-10-31T20:26:29.089Z,99581.41
2022-10-31T20:28:56.903Z,99590.50
2022-10-31T20:31:26.489Z,99584.47
2022-10-31T20:33:54.272Z,99584.09
2022-10-31T20:36:22.923Z,99578.09
2022-10-31T20:38:51.855Z,99569.59
2022-10-31T20:41:18.875Z,99569.13
2022-10-31T20:43:45.832Z,99556.09
2022-10-31T20:46:18.905Z,99550.06
2022-10-31T20:48:46.207Z,99539.34
2022-10-31T20:51:18.875Z,99549.03
2022-10-31T20:53:45.636Z,99548.88
2022-10-31T20:56:14.690Z,99550.72
2022-10-31T20:58:43.009Z,99553.19
2022-10-31T21:01:20.284Z,99560.91
2022-10-31T21:03:48.885Z,99554.41
2022-10-31T21:06:17.188Z,99553.41
2022-10-31T21:08:51.475Z,99554.72
2022-10-31T21:11:21.397Z,99555.38
2022-10-31T21:13:49.314Z,99539.91
2022-10-31T21:16:19.113Z,99542.41
2022-10-31T21:18:46.863Z,99544.25
2022-10-31T21:21:24.131Z,99540.75
2022-10-31T21:24:03.517Z,99547.31
2022-10-31T21:26:33.730Z,99542.94
2022-10-31T21:29:01.301Z,99534.09
2022-10-31T21:31:28.425Z,99527.59
2022-10-31T21:33:56.051Z,99524.09
2022-10-31T21:36:23.197Z,99520.75
2022-10-31T21:38:51.462Z,99532.31
2022-10-31T21:41:19.226Z,99530.09
2022-10-31T21:43:47.473Z,99531.56
2022-10-31T21:46:20.187Z,99529.38
2022-10-31T21:48:47.612Z,99521.31
2022-10-31T21:51:18.328Z,99529.16
2022-10-31T21:54:03.709Z,99519.47
2022-10-31T21:56:30.605Z,99524.19
2022-10-31T21:58:57.608Z,99525.56
2022-10-31T22:01:26.338Z,99518.72
2022-10-31T22:03:53.291Z,99517.25
2022-10-31T22:06:20.615Z,99507.53
2022-10-31T22:08:47.770Z,99507.91
2022-10-31T22:11:16.451Z,99514.47
2022-10-31T22:13:46.321Z,99509.28
2022-10-31T22:16:18.734Z,99493.38
2022-10-31T22:18:46.315Z,99483.84
2022-10-31T22:21:16.344Z,99477.19
2022-10-31T22:23:43.979Z,99476.38
2022-10-31T22:26:15.304Z,99474.91
2022-10-31T22:28:43.059Z,99468.88
2022-10-31T22:33:44.201Z,99458.88
2022-10-31T22:36:13.818Z,99447.69
2022-10-31T22:38:41.977Z,99443.53
2022-10-31T22:41:12.922Z,99433.00
2022-10-31T22:43:40.064Z,99424.78
2022-10-31T22:46:08.938Z,99418.38
2022-10-31T22:48:38.090Z,99406.03
2022-10-31T22:51:29.476Z,99406.19
2022-10-31T22:53:56.793Z,99401.13
2022-10-31T22:56:26.791Z,99389.78
2022-10-31T22:58:54.002Z,99371.84
2022-10-31T23:01:24.574Z,99366.84
2022-10-31T23:03:51.888Z,99370.16
2022-10-31T23:06:21.257Z,99358.78
2022-10-31T23:08:49.101Z,99365.19
2022-10-31T23:11:17.139Z,99366.00
2022-10-31T23:14:04.273Z,99365.00
2022-10-31T23:16:31.902Z,99357.97
2022-10-31T23:19:00.007Z,99364.44
2022-10-31T23:21:53.867Z,99367.41
2022-10-31T23:24:23.065Z,99362.13
2022-10-31T23:27:10.135Z,99352.69
2022-10-31T23:29:50.255Z,99349.84
2022-10-31T23:32:32.179Z,99338.72
2022-10-31T23:35:02.288Z,99327.00
2022-10-31T23:37:31.334Z,99334.66
2022-10-31T23:39:58.321Z,99336.91
2022-10-31T23:42:26.225Z,99339.38
2022-10-31T23:44:53.659Z,99334.41
2022-10-31T23:47:21.894Z,99334.00
2022-10-31T23:49:49.121Z,99335.88
2022-10-31T23:52:19.392Z,99332.38
2022-10-31T23:54:46.133Z,99321.00
2022-10-31T23:57:14.327Z,99322.66
2022-10-31T23:59:41.679Z,99314.81
